Meteo Giornale » Osservazioni meteo Italia » Grazzanise

ore: 01:55 - Osservazioni Meteo Grazzanise
Lat. 41° 3' N Lon. 14° 4' E Alt. 9 metri s.l.m.

nuvoloso Europe/Rome

26 °C

Nuvoloso

Temp. 24 Ore

19 °C

35 °C

Nord

0 Km/h

Dew point 24 °C

Umidità 88 %

Visibilità  10 Km

Il sole sorge alle ore 06:02

Il sole tramonta alle ore 20:17

Data e Ora Cielo e Fenomeni T °C DP °C Um. % Pres. hPa Vis. km Vento km/h
Oggi h: 01:55 nuvoloso Nuvoloso 26 24 88 1011 10 N 0
Oggi h: 00:55 nuvoloso Nuvoloso 27 25 88 1011 10 N 0
Ieri h: 23:55 nuvoloso Nuvoloso 27 25 88 1011 10 N 0
Ieri h: 22:55 sereno Sereno 27 25 88 1011 10 N 0
Ieri h: 21:55 sereno Sereno 27 25 88 1011 10 N 0
Ieri h: 20:55 sereno Sereno 28 24 78 1011 10 N 0
Ieri h: 19:55 sereno Sereno 30 23 66 1011 10 N 0
Ieri h: 17:55 sereno Sereno 32 17 40 1012 10 N 0
Ieri h: 16:55 sereno Sereno 32 14 33 1012 10 N 0
Ieri h: 15:55 poco_nuvoloso Poco Nuvoloso 34 5 16 1012 10 N 0
Ieri h: 13:55 poco_nuvoloso Poco Nuvoloso 35 5 15 1013 10 N 0
Ieri h: 12:55 nuvoloso Nuvoloso 35 5 15 1014 10 N 0
Ieri h: 11:55 nuvoloso Nuvoloso 33 6 18 1014 10 N 0
Ieri h: 10:55 nuvoloso Nuvoloso 30 13 35 1014 10 N 0
Ieri h: 09:55 poco_nuvoloso Poco Nuvoloso 27 13 42 1014 10 N 0
Ieri h: 08:55 sereno Sereno 25 16 57 1014 10 N 0
Ieri h: 07:55 sereno Sereno 21 18 82 1014 10 N 0
Ieri h: 06:55 sereno Sereno 19 17 88 1014 10 N 0
Ieri h: 05:55 sereno Sereno 19 17 88 1014 10 N 0
Ieri h: 04:55 sereno Sereno 19 17 88 1015 10 N 0
Ieri h: 02:55 sereno Sereno 20 18 88 1016 10 N 0